This is the latest recevied weather packets stored in our database for station/object KE8BSM. If no packets are shown the sender has not sent any weather packets the latest 10 day(s).
| Time | Temp. | Humidity | Pressure | Rain* | Wind** | Luminosity | Snow |
|---|---|---|---|---|---|---|---|
| 1777865718 | 11.11° C | 76% | 1005.8 hPa | 0 mm | - | 0 W/m² | - |
| 1777863316 | 11.11° C | 76% | 1006.1 hPa | 0 mm | - | 0 W/m² | - |
| 1777862715 | 11.11° C | 73% | 1006.1 hPa | 0 mm | - | 0 W/m² | - |
| 1777859116 | 11.67° C | 69% | 1006 hPa | 0 mm | - | 0 W/m² | - |
| 1777857317 | 12.22° C | 67% | 1006 hPa | 0 mm | - | 0 W/m² | - |
| 1777844118 | 12.78° C | 64% | 1008.2 hPa | 0 mm | - | 610 W/m² | - |
| 1777843517 | 12.22° C | 67% | 1008.3 hPa | 0 mm | - | 182 W/m² | - |
| 1777839916 | 11.11° C | 71% | 1009.1 hPa | 0.25 mm | - | 84 W/m² | - |
| 1777833917 | 13.89° C | 57% | 1010.2 hPa | 0 mm | - | 288 W/m² | - |
| 1777827936 | 13.89° C | 56% | 1011 hPa | 0 mm | - | 474 W/m² | - |
| 1777824916 | 12.22° C | 57% | 1011.4 hPa | 0 mm | - | 233 W/m² | - |
| 1777824336 | 12.22° C | 56% | 1011.4 hPa | 0 mm | - | 228 W/m² | - |
| 1777820717 | 11.67° C | 56% | 1011.6 hPa | 0 mm | - | 152 W/m² | - |
| 1777819516 | 11.67° C | 57% | 1011.6 hPa | 0 mm | - | 196 W/m² | - |
| 1777814718 | 10° C | 60% | 1012.6 hPa | 0 mm | - | 62 W/m² | - |
| 1777814115 | 10.56° C | 60% | 1012.5 hPa | 0 mm | - | 42 W/m² | - |
| 1777809918 | 9.44° C | 60% | 1012.4 hPa | 0 mm | - | 52 W/m² | - |
| 1777804519 | 5.56° C | 71% | 1012.2 hPa | 0 mm | - | 1 W/m² | - |
| 1777801520 | 5° C | 74% | 1012.5 hPa | 0 mm | - | 0 W/m² | - |
| 1777800920 | 5° C | 74% | 1012.5 hPa | 0 mm | - | 0 W/m² | - |
| 1777797337 | 4.44° C | 72% | 1012.8 hPa | 0 mm | - | 0 W/m² | - |
| 1777794917 | 5° C | 67% | 1013 hPa | 0 mm | - | 0 W/m² | - |
| 1777794318 | 5° C | 66% | 1013 hPa | 0 mm | - | 0 W/m² | - |
| 1777791315 | 5.56° C | 60% | 1013.3 hPa | 0 mm | - | 0 W/m² | - |
| 1777781118 | 5.56° C | 59% | 1015.2 hPa | 0 mm | - | 0 W/m² | - |
* Rain latest hour (hover to see other rain measurements)
** Current wind speed in m/s (hover to see current wind gust speed)